Time;durP1;ratioP1;P1;durP2;ratioP2;P2;SDS_P1;SDS_P2;PMS_P1;PMS_P2;Temp;Humidity;BMP_temperature;BMP_pressure;BME280_temperature;BME280_humidity;BME280_pressure;Samples;Min_cycle;Max_cycle;Signal;HPM_P1;HPM_P2
2022/10/02 00:01:59;;;;;;;46.92;45.08;;;;;;;10.94;100.00;101024.00;5051826;28;20025;-75
2022/10/02 00:04:31;;;;;;;;;;;;;;;10.94;100.00;101018.72;5060433;28;20129;-75
2022/10/02 00:07:02;;;;;;;37.90;36.55;;;;;;;10.88;100.00;101004.28;5065013;28;19984;-75
2022/10/02 00:09:42;;;;;;;50.25;48.38;;;;;;;10.97;100.00;101014.94;5065911;28;20080;-75
2022/10/02 00:12:13;;;;;;;46.67;44.53;;;;;;;11.05;100.00;101021.16;5068531;28;20027;-75
2022/10/02 00:14:41;;;;;;;49.13;46.88;;;;;;;11.04;100.00;101019.50;5060996;28;20056;-75
2022/10/02 00:17:15;;;;;;;49.08;47.17;;;;;;;11.14;100.00;101031.81;5066669;28;20036;-75
2022/10/02 00:19:40;;;;;;;44.47;42.85;;;;;;;11.14;100.00;101031.81;5057569;28;20074;-75
2022/10/02 00:22:28;;;;;;;44.78;43.20;;;;;;;11.16;100.00;101032.50;5057436;28;20033;-75
2022/10/02 00:24:58;;;;;;;35.55;33.90;;;;;;;11.01;100.00;101022.44;5056928;28;20601;-75
2022/10/02 00:27:34;;;;;;;35.63;34.28;;;;;;;11.01;100.00;101009.22;5069419;28;20039;-75
2022/10/02 00:30:01;;;;;;;31.60;30.33;;;;;;;11.15;100.00;101047.53;5061224;28;20024;-75
2022/10/02 00:32:35;;;;;;;30.27;28.85;;;;;;;11.20;100.00;101049.72;5063812;28;20025;-75
2022/10/02 00:35:22;;;;;;;30.05;28.50;;;;;;;11.16;100.00;101048.34;5062646;28;20039;-75
2022/10/02 00:38:05;;;;;;;28.63;27.52;;;;;;;11.09;100.00;101048.94;5065008;28;20632;-75
2022/10/02 00:40:48;;;;;;;27.75;26.30;;;;;;;11.02;100.00;101047.06;5063131;28;20502;-75
2022/10/02 00:43:33;;;;;;;35.58;33.70;;;;;;;11.00;100.00;101049.00;5068263;28;20044;-75
2022/10/02 00:46:36;;;;;;;30.35;29.13;;;;;;;10.91;100.00;101050.72;5063725;28;20056;-75
2022/10/02 00:49:07;;;;;;;30.77;29.60;;;;;;;10.87;100.00;101059.91;5065436;28;20028;-75
2022/10/02 00:51:51;;;;;;;37.28;35.60;;;;;;;10.83;100.00;101053.25;5070340;28;20021;-75
2022/10/02 00:54:54;;;;;;;42.08;40.47;;;;;;;10.73;100.00;101055.09;5057988;28;20914;-75
2022/10/02 00:57:41;;;;;;;46.85;45.13;;;;;;;10.65;100.00;101061.13;5063692;28;20024;-75
2022/10/02 01:00:13;;;;;;;49.50;47.60;;;;;;;10.63;100.00;101061.25;5063759;28;20029;-75
2022/10/02 01:03:10;;;;;;;49.08;47.05;;;;;;;10.47;100.00;101042.56;5070405;28;20045;-75
2022/10/02 01:05:36;;;;;;;48.38;46.47;;;;;;;10.54;100.00;101059.50;5071325;28;20043;-75
2022/10/02 01:08:03;;;;;;;52.20;50.28;;;;;;;10.57;100.00;101067.09;5065525;28;20040;-76
2022/10/02 01:10:29;;;;;;;65.07;62.33;;;;;;;10.62;100.00;101082.50;5063394;28;20034;-75
2022/10/02 01:12:56;;;;;;;55.88;53.15;;;;;;;10.59;100.00;101075.72;5063218;28;20041;-75
2022/10/02 01:15:27;;;;;;;53.55;51.58;;;;;;;10.55;100.00;101079.63;5055410;28;20132;-75
2022/10/02 01:17:54;;;;;;;59.17;56.58;;;;;;;10.51;100.00;101086.16;5063612;28;20058;-75
2022/10/02 01:20:32;;;;;;;58.20;55.38;;;;;;;10.28;100.00;101068.00;5069180;28;20033;-75
2022/10/02 01:23:11;;;;;;;51.22;49.25;;;;;;;10.41;100.00;101091.47;5062614;28;20039;-75
2022/10/02 01:25:36;;;;;;;63.95;61.40;;;;;;;10.36;100.00;101093.69;5071055;28;20026;-75
2022/10/02 01:28:04;;;;;;;51.42;49.50;;;;;;;10.33;100.00;101082.59;5070399;28;20037;-75
2022/10/02 01:30:30;;;;;;;57.85;55.42;;;;;;;10.22;100.00;101068.56;5069681;28;20051;-75
2022/10/02 01:32:59;;;;;;;60.92;58.03;;;;;;;10.35;100.00;101085.94;5073367;28;20028;-75
2022/10/02 01:35:31;;;;;;;55.63;53.15;;;;;;;10.23;100.00;101062.31;5073870;28;20086;-75
2022/10/02 01:37:58;;;;;;;52.28;49.80;;;;;;;10.42;100.00;101097.56;5065152;28;20036;-75
2022/10/02 01:40:30;;;;;;;62.58;59.65;;;;;;;10.32;100.00;101081.75;5058683;28;20208;-75
2022/10/02 01:43:20;;;;;;;55.33;52.85;;;;;;;10.24;100.00;101068.44;5066123;28;20048;-75
2022/10/02 01:45:55;;;;;;;48.25;46.10;;;;;;;10.43;100.00;101094.81;5057787;28;20040;-75
2022/10/02 01:48:42;;;;;;;49.30;46.85;;;;;;;10.44;100.00;101100.91;5062242;28;20017;-75
2022/10/02 01:51:26;;;;;;;51.22;49.30;;;;;;;10.43;100.00;101104.50;5065511;28;20523;-75
2022/10/02 01:54:17;;;;;;;48.65;45.80;;;;;;;10.44;100.00;101103.53;5061198;28;20021;-75
2022/10/02 01:57:07;;;;;;;48.03;46.03;;;;;;;10.43;100.00;101093.94;5061510;28;20055;-75
2022/10/02 02:00:00;;;;;;;48.20;46.22;;;;;;;10.42;100.00;101103.69;5060335;28;20039;-75
2022/10/02 02:02:52;;;;;;;51.08;48.03;;;;;;;10.42;100.00;101101.03;5062046;28;20060;-75
2022/10/02 02:05:23;;;;;;;45.22;42.88;;;;;;;10.38;100.00;101106.75;5059708;28;20033;-74
2022/10/02 02:07:53;;;;;;;;;;;;;;;10.37;100.00;101094.53;5062288;28;20041;-75
2022/10/02 02:10:22;;;;;;;34.28;32.95;;;;;;;10.35;100.00;101104.41;5059104;28;19912;-74
2022/10/02 02:13:00;;;;;;;42.20;39.90;;;;;;;10.29;100.00;101096.06;5059867;28;20032;-75
2022/10/02 02:15:35;;;;;;;49.13;47.15;;;;;;;10.31;100.00;101100.38;5059312;28;20021;-75
2022/10/02 02:18:17;;;;;;;47.38;45.35;;;;;;;10.11;100.00;101060.81;5061608;28;20108;-75
2022/10/02 02:20:46;;;;;;;44.17;41.55;;;;;;;10.28;100.00;101096.19;5056292;28;20060;-75
2022/10/02 02:23:19;;;;;;;45.78;44.05;;;;;;;10.27;100.00;101094.50;5067231;28;20573;-75
2022/10/02 02:25:49;;;;;;;43.78;41.53;;;;;;;10.17;100.00;101072.59;5064527;28;20036;-75
2022/10/02 02:28:19;;;;;;;51.83;49.60;;;;;;;10.18;100.00;101090.09;5068039;28;20114;-75
2022/10/02 02:30:48;;;;;;;52.78;50.30;;;;;;;10.22;100.00;101102.84;5064178;28;20031;-74
2022/10/02 02:33:18;;;;;;;50.65;48.78;;;;;;;10.22;100.00;101092.31;5062009;28;20033;-74
2022/10/02 02:35:48;;;;;;;49.90;47.58;;;;;;;10.14;100.00;101073.72;5059417;28;20025;-74
2022/10/02 02:38:30;;;;;;;48.45;46.53;;;;;;;10.27;100.00;101100.63;5067191;28;20031;-75
2022/10/02 02:41:01;;;;;;;50.85;48.97;;;;;;;10.36;100.00;101103.41;5069974;28;20027;-74
2022/10/02 02:43:29;;;;;;;;;;;;;;;10.44;100.00;101108.81;5068248;28;20019;-74
2022/10/02 02:46:06;;;;;;;43.03;40.40;;;;;;;10.54;100.00;101106.16;5065192;28;19962;-75
2022/10/02 02:48:40;;;;;;;45.55;43.75;;;;;;;10.56;100.00;101099.78;5066425;28;20033;-74
2022/10/02 02:51:12;;;;;;;67.07;64.30;;;;;;;10.65;100.00;101114.75;5067193;28;20024;-74
2022/10/02 02:53:43;;;;;;;57.22;54.65;;;;;;;10.73;100.00;101115.81;5067171;28;20032;-75
2022/10/02 02:56:13;;;;;;;57.63;55.55;;;;;;;10.67;100.00;101101.41;5066398;28;20048;-75
2022/10/02 02:58:38;;;;;;;55.88;53.63;;;;;;;10.80;100.00;101112.47;5066502;28;20033;-75
2022/10/02 03:01:04;;;;;;;62.45;59.88;;;;;;;10.77;100.00;101096.91;5065135;28;20040;-75
2022/10/02 03:03:29;;;;;;;58.85;56.55;;;;;;;10.90;100.00;101120.34;5057920;28;20049;-75
2022/10/02 03:06:20;;;;;;;56.38;53.80;;;;;;;10.91;100.00;101143.97;5074934;28;20189;-74
2022/10/02 03:08:49;;;;;;;53.53;51.45;;;;;;;10.90;100.00;101152.03;5079160;28;20043;-74
2022/10/02 03:11:40;;;;;;;51.30;49.45;;;;;;;10.94;100.00;101155.22;5074858;28;20013;-74
2022/10/02 03:14:21;;;;;;;43.40;41.42;;;;;;;10.95;100.00;101149.78;5073299;28;20025;-74
2022/10/02 03:16:55;;;;;;;46.67;44.92;;;;;;;11.02;100.00;101148.25;5076404;28;20025;-74
2022/10/02 03:19:39;;;;;;;46.90;45.08;;;;;;;11.05;100.00;101126.81;5069648;28;20463;-74
2022/10/02 03:22:04;;;;;;;47.28;45.50;;;;;;;11.04;100.00;101134.88;5067841;28;20436;-74
2022/10/02 03:24:54;;;;;;;44.08;42.45;;;;;;;11.09;100.00;101133.47;5061569;28;20058;-75
2022/10/02 03:27:42;;;;;;;40.97;39.30;;;;;;;11.12;100.00;101121.75;5057149;28;20105;-75
2022/10/02 03:30:10;;;;;;;42.40;40.65;;;;;;;11.04;100.00;101108.44;5063163;28;20046;-75
2022/10/02 03:32:38;;;;;;;42.50;40.90;;;;;;;11.06;100.00;101115.28;5058154;28;20020;-75
2022/10/02 03:35:07;;;;;;;49.08;46.17;;;;;;;11.11;100.00;101117.47;5060752;28;20029;-75
2022/10/02 03:37:34;;;;;;;44.05;42.15;;;;;;;11.09;100.00;101133.47;5058514;28;20772;-74
2022/10/02 03:40:00;;;;;;;44.28;42.13;;;;;;;11.04;100.00;101135.72;5057704;28;20033;-75
2022/10/02 03:42:29;;;;;;;47.45;45.70;;;;;;;11.01;100.00;101122.78;5055393;28;20063;-75
2022/10/02 03:44:54;;;;;;;49.08;47.08;;;;;;;11.00;100.00;101129.06;5071507;28;20396;-74
2022/10/02 03:47:20;;;;;;;46.35;44.03;;;;;;;10.87;100.00;101110.91;5038428;28;20031;-74
2022/10/02 03:49:45;;;;;;;44.08;42.55;;;;;;;10.99;100.00;101132.66;5053083;28;20094;-74
2022/10/02 03:52:15;;;;;;;46.75;44.95;;;;;;;11.01;100.00;101141.28;5051630;28;20029;-75
2022/10/02 03:54:41;;;;;;;45.67;43.75;;;;;;;11.06;100.00;101141.69;5049037;28;20024;-76
2022/10/02 03:57:12;;;;;;;50.28;48.33;;;;;;;11.05;100.00;101140.00;5051972;28;20031;-75
2022/10/02 03:59:50;;;;;;;38.42;37.00;;;;;;;10.93;100.00;101129.78;5051646;28;20033;-76
2022/10/02 04:02:37;;;;;;;35.85;34.50;;;;;;;11.04;100.00;101146.28;5053252;28;20040;-75
2022/10/02 04:05:14;;;;;;;37.55;35.88;;;;;;;11.01;100.00;101130.72;5052176;28;20896;-75
2022/10/02 04:07:42;;;;;;;41.17;39.20;;;;;;;11.10;100.00;101153.63;5051394;28;20024;-74
2022/10/02 04:10:31;;;;;;;39.88;38.15;;;;;;;11.07;100.00;101145.97;5047394;28;20036;-75
2022/10/02 04:13:24;;;;;;;33.78;32.53;;;;;;;11.02;100.00;101142.13;5052653;28;20114;-75
2022/10/02 04:15:52;;;;;;;35.92;34.60;;;;;;;11.05;100.00;101153.22;5049326;28;20036;-75
2022/10/02 04:18:39;;;;;;;36.78;35.40;;;;;;;11.05;100.00;101141.81;5049851;28;20042;-75
2022/10/02 04:21:37;;;;;;;32.75;31.58;;;;;;;11.10;100.00;101148.34;5048607;28;20111;-75
2022/10/02 04:24:20;;;;;;;33.00;31.75;;;;;;;11.09;100.00;101157.22;5049001;28;20045;-75
2022/10/02 04:26:58;;;;;;;37.28;35.72;;;;;;;11.09;100.00;101149.31;5047614;28;20029;-75
2022/10/02 04:29:30;;;;;;;38.38;36.17;;;;;;;11.08;100.00;101142.38;5051454;28;20033;-75
2022/10/02 04:32:10;;;;;;;41.03;38.10;;;;;;;11.14;100.00;101156.78;5051187;28;20051;-75
2022/10/02 04:34:36;;;;;;;35.40;34.15;;;;;;;11.14;100.00;101156.78;5057171;28;20024;-75
2022/10/02 04:37:18;;;;;;;40.33;38.72;;;;;;;11.11;100.00;101160.56;5056566;28;20086;-75
2022/10/02 04:40:10;;;;;;;36.00;34.58;;;;;;;11.14;100.00;101170.00;5056821;28;20039;-75
2022/10/02 04:43:05;;;;;;;35.17;33.92;;;;;;;11.12;100.00;101172.78;5055747;28;20523;-75
2022/10/02 04:45:59;;;;;;;34.05;32.60;;;;;;;11.06;100.00;101173.38;5056220;28;20543;-75
2022/10/02 04:48:52;;;;;;;37.85;35.92;;;;;;;10.98;100.00;101173.28;5034256;28;20492;-75
2022/10/02 04:51:31;;;;;;;32.30;30.45;;;;;;;10.95;100.00;101173.53;5056741;28;20016;-75
2022/10/02 04:54:33;;;;;;;35.30;33.88;;;;;;;10.91;100.00;101182.75;5051227;28;20032;-75
2022/10/02 04:57:23;;;;;;;27.48;26.45;;;;;;;10.83;100.00;101191.38;5051200;28;20028;-75
2022/10/02 04:59:58;;;;;;;27.63;26.58;;;;;;;10.81;100.00;101184.59;5054666;28;20063;-75
2022/10/02 05:02:31;;;;;;;29.95;28.83;;;;;;;10.75;100.00;101187.78;5052834;28;20867;-75
2022/10/02 05:05:18;;;;;;;30.45;29.20;;;;;;;10.63;100.00;101173.94;5053104;28;20032;-75
2022/10/02 05:08:13;;;;;;;28.25;27.23;;;;;;;10.65;100.00;101196.56;5056651;28;20036;-75
2022/10/02 05:11:11;;;;;;;30.88;29.40;;;;;;;10.57;100.00;101191.16;5053151;28;20025;-75
2022/10/02 05:13:58;;;;;;;25.08;23.85;;;;;;;10.54;100.00;101199.38;5051422;28;20025;-76
2022/10/02 05:17:01;;;;;;;28.45;27.42;;;;;;;10.50;100.00;101193.53;5049769;28;20043;-76
2022/10/02 05:20:05;;;;;;;28.35;26.95;;;;;;;10.46;100.00;101188.69;5047071;28;20021;-77
2022/10/02 05:23:08;;;;;;;30.33;29.10;;;;;;;10.38;100.00;101188.53;5035975;28;20119;-76
2022/10/02 05:25:45;;;;;;;30.55;29.45;;;;;;;10.36;100.00;101193.13;5050911;28;20030;-76
2022/10/02 05:28:31;;;;;;;32.70;31.17;;;;;;;10.28;100.00;101194.63;5051944;28;20039;-76
2022/10/02 05:31:27;;;;;;;32.55;31.10;;;;;;;10.29;100.00;101193.69;5057937;28;20093;-76
2022/10/02 05:34:01;;;;;;;28.88;27.00;;;;;;;10.27;100.00;101208.78;5049046;28;20817;-77
2022/10/02 05:36:44;;;;;;;31.00;29.80;;;;;;;10.16;100.00;101187.81;5050260;28;20033;-77
2022/10/02 05:39:19;;;;;;;30.67;29.42;;;;;;;10.23;100.00;101210.03;5049570;28;20055;-76
2022/10/02 05:42:00;;;;;;;31.30;30.10;;;;;;;10.24;100.00;101224.06;5058985;28;20055;-76
2022/10/02 05:44:36;;;;;;;31.40;29.83;;;;;;;10.07;100.00;101186.03;5051707;28;20024;-77
2022/10/02 05:47:22;;;;;;;33.83;32.33;;;;;;;10.10;100.00;101204.19;5051193;28;20037;-76
2022/10/02 05:49:52;;;;;;;32.05;30.75;;;;;;;10.08;100.00;101198.22;5050790;28;20055;-78
2022/10/02 05:52:45;;;;;;;33.85;31.98;;;;;;;10.19;100.00;101215.72;5049338;28;20495;-77
2022/10/02 05:55:16;;;;;;;32.97;31.77;;;;;;;10.17;100.00;101217.66;5053797;28;20060;-77
2022/10/02 05:57:50;;;;;;;35.65;34.13;;;;;;;10.01;100.00;101200.56;5054075;28;20999;-77
2022/10/02 06:00:28;;;;;;;34.60;33.35;;;;;;;10.15;100.00;101223.09;5050622;28;20032;-77
2022/10/02 06:03:31;;;;;;;29.02;27.92;;;;;;;10.13;100.00;101230.31;5056687;28;20055;-77
2022/10/02 06:06:09;;;;;;;30.30;29.15;;;;;;;9.94;100.00;101209.19;5054879;28;20110;-77
2022/10/02 06:08:57;;;;;;;35.08;33.33;;;;;;;10.08;100.00;101233.38;5050464;28;20028;-76
2022/10/02 06:11:31;;;;;;;35.28;33.95;;;;;;;9.95;100.00;101224.03;5052314;28;20050;-77
2022/10/02 06:14:05;;;;;;;35.03;33.80;;;;;;;10.05;100.00;101241.53;5056426;28;20392;-76
2022/10/02 06:16:42;;;;;;;41.58;39.42;;;;;;;10.08;100.00;101245.69;5050180;28;20028;-77
2022/10/02 06:19:17;;;;;;;40.08;38.45;;;;;;;10.06;100.00;101235.31;5050678;28;20029;-77
2022/10/02 06:21:53;;;;;;;40.50;38.83;;;;;;;10.13;100.00;101246.13;5059140;28;20499;-76
2022/10/02 06:24:45;;;;;;;38.70;36.92;;;;;;;10.28;100.00;101254.47;5088125;28;20033;-76
2022/10/02 06:27:40;;;;;;;36.47;34.95;;;;;;;10.35;100.00;101260.91;4992170;28;20947;-77
2022/10/02 06:30:09;;;;;;;37.83;35.78;;;;;;;10.43;100.00;101252.28;5005715;28;20034;-76
2022/10/02 06:32:42;;;;;;;39.03;37.47;;;;;;;10.45;100.00;101252.97;5005841;28;20030;-77
2022/10/02 06:35:11;;;;;;;34.63;33.38;;;;;;;10.61;100.00;101270.91;5000791;28;20037;-77
2022/10/02 06:37:55;;;;;;;40.38;38.90;;;;;;;10.78;100.00;101282.53;5008494;28;20041;-76
2022/10/02 06:40:41;;;;;;;38.22;36.70;;;;;;;10.91;100.00;101280.47;5004391;28;20030;-76
2022/10/02 06:43:34;;;;;;;34.15;32.75;;;;;;;11.11;100.00;101284.72;5006824;28;20087;-76
2022/10/02 06:46:14;;;;;;;45.85;43.85;;;;;;;11.33;100.00;101285.34;5008522;28;20041;-77
2022/10/02 06:48:57;;;;;;;45.47;43.40;;;;;;;11.42;100.00;101276.56;4981887;28;20030;-77
2022/10/02 06:51:45;;;;;;;40.45;38.83;;;;;;;11.74;100.00;101296.47;4991228;28;20076;-77
2022/10/02 06:54:24;;;;;;;41.17;38.95;;;;;;;11.75;100.00;101292.81;5007839;28;20899;-77
2022/10/02 06:57:13;;;;;;;32.80;31.40;;;;;;;11.82;100.00;101327.44;5011182;28;20049;-76
2022/10/02 07:00:13;;;;;;;26.98;25.45;;;;;;;11.79;100.00;101347.09;5022900;28;20030;-75
2022/10/02 07:02:44;;;;;;;17.20;16.60;;;;;;;11.65;100.00;101344.91;5008765;28;20037;-75
2022/10/02 07:05:32;;;;;;;;;;;;;;;11.57;100.00;101336.88;5098468;28;20059;-76
2022/10/02 07:08:11;;;;;;;13.57;12.73;;;;;;;11.51;100.00;101343.56;5057049;28;20522;-77
2022/10/02 07:11:07;;;;;;;18.50;17.40;;;;;;;11.49;100.00;101345.53;5051877;28;20075;-76
2022/10/02 07:13:39;;;;;;;19.83;18.85;;;;;;;11.39;100.00;101339.41;5053130;28;20021;-76
2022/10/02 07:16:23;;;;;;;21.35;20.60;;;;;;;11.53;100.00;101358.31;5049991;28;20079;-76
2022/10/02 07:19:03;;;;;;;26.73;25.70;;;;;;;11.56;100.00;101351.91;5061343;28;20475;-76
2022/10/02 07:22:06;;;;;;;26.00;25.08;;;;;;;11.56;100.00;101353.72;5067601;28;20388;-75
2022/10/02 07:24:40;;;;;;;28.33;27.10;;;;;;;11.56;100.00;101341.31;5067520;28;20036;-76
2022/10/02 07:27:17;;;;;;;27.70;25.90;;;;;;;11.41;100.00;101314.53;5053252;28;20108;-77
2022/10/02 07:30:07;;;;;;;25.85;24.58;;;;;;;11.59;100.00;101345.50;5062901;28;20024;-76
2022/10/02 07:33:08;;;;;;;29.98;28.67;;;;;;;11.62;100.00;101350.50;5053525;28;20039;-76
2022/10/02 07:35:42;;;;;;;30.17;28.53;;;;;;;11.71;100.00;101373.41;5018405;28;20629;-77
2022/10/02 07:38:11;;;;;;;29.10;27.60;;;;;;;11.77;100.00;101372.84;5009515;28;20281;-76
2022/10/02 07:41:00;;;;;;;38.13;36.38;;;;;;;11.85;100.00;101375.59;5014942;28;20965;-76
2022/10/02 07:43:44;;;;;;;36.88;35.22;;;;;;;11.92;100.00;101373.25;4994841;28;20128;-76
2022/10/02 07:46:21;;;;;;;39.40;37.60;;;;;;;12.04;100.00;101373.88;5019458;28;20050;-76
2022/10/02 07:49:06;;;;;;;44.38;42.55;;;;;;;12.27;100.00;101372.50;5018299;28;20029;-77
2022/10/02 07:51:53;;;;;;;47.97;46.17;;;;;;;12.58;100.00;101369.50;5015841;28;20937;-76
2022/10/02 07:54:28;;;;;;;53.78;50.97;;;;;;;12.87;100.00;101382.56;4998064;28;20056;-76
2022/10/02 07:56:59;;;;;;;44.85;43.20;;;;;;;13.19;100.00;101383.78;5015576;28;20530;-77
2022/10/02 07:59:29;;;;;;;37.88;36.00;;;;;;;13.46;100.00;101385.53;5005443;28;20471;-76
2022/10/02 08:01:55;;;;;;;32.05;30.75;;;;;;;13.71;100.00;101383.00;5014384;28;20104;-76
2022/10/02 08:04:30;;;;;;;30.63;29.02;;;;;;;14.02;100.00;101385.16;5011691;28;20104;-77
2022/10/02 08:07:00;;;;;;;30.27;28.75;;;;;;;14.45;100.00;101396.59;4996790;28;20472;-76
2022/10/02 08:09:38;;;;;;;19.00;18.10;;;;;;;14.55;100.00;101400.81;4989286;28;20659;-76
2022/10/02 08:12:27;;;;;;;19.17;17.80;;;;;;;15.04;100.00;101397.38;5045002;28;20033;-77
2022/10/02 08:14:54;;;;;;;27.25;26.05;;;;;;;16.73;100.00;101402.53;5049153;28;20033;-77
2022/10/02 08:17:36;;;;;;;7.85;7.20;;;;;;;16.49;94.85;101408.84;5054194;28;20020;-77
2022/10/02 08:20:13;;;;;;;6.55;5.78;;;;;;;16.40;94.52;101394.72;5049300;28;20593;-76
2022/10/02 08:22:45;;;;;;;5.75;5.35;;;;;;;16.78;94.14;101412.66;5052782;28;20044;-77
2022/10/02 08:25:25;;;;;;;7.15;6.45;;;;;;;17.95;90.70;101420.34;5047766;28;20647;-77
2022/10/02 08:28:22;;;;;;;3.60;3.40;;;;;;;18.02;86.97;101427.41;5071588;28;20059;-77
2022/10/02 08:30:47;;;;;;;3.22;2.58;;;;;;;17.42;86.29;101425.66;5047449;28;20698;-77
2022/10/02 08:33:18;;;;;;;3.58;2.50;;;;;;;17.07;87.72;101417.28;5041092;28;20017;-78
2022/10/02 08:35:58;;;;;;;4.40;2.90;;;;;;;17.02;89.27;101443.69;5057436;28;20028;-76
2022/10/02 08:38:38;;;;;;;3.75;3.38;;;;;;;16.73;90.10;101420.34;5050519;28;20055;-76
2022/10/02 08:41:28;;;;;;;6.05;3.35;;;;;;;16.90;90.92;101445.09;5057333;28;20040;-76
2022/10/02 08:44:05;;;;;;;5.23;3.63;;;;;;;16.85;91.02;101449.13;5052921;28;20625;-76
2022/10/02 08:46:59;;;;;;;8.48;6.47;;;;;;;17.76;92.05;101448.38;5052778;28;20096;-78
2022/10/02 08:49:51;;;;;;;4.32;3.40;;;;;;;18.45;85.51;101458.78;5054372;28;21038;-77
2022/10/02 08:52:45;;;;;;;4.80;2.10;;;;;;;18.16;83.40;101455.16;5051278;28;20036;-77
2022/10/02 08:55:28;;;;;;;3.42;2.22;;;;;;;17.64;85.13;101459.50;5061786;28;20024;-77
2022/10/02 08:58:27;;;;;;;2.78;2.58;;;;;;;17.16;88.37;101434.06;5053689;28;20079;-77
2022/10/02 09:01:19;;;;;;;4.00;3.20;;;;;;;18.32;90.07;101467.47;5057708;28;20025;-77
2022/10/02 09:04:09;;;;;;;5.10;2.35;;;;;;;18.90;82.92;101465.72;5050128;28;20055;-76
2022/10/02 09:06:55;;;;;;;4.78;2.33;;;;;;;18.66;81.04;101468.69;5041084;28;20060;-76
2022/10/02 09:09:47;;;;;;;6.50;2.00;;;;;;;18.34;81.47;101468.13;5066522;28;20066;-76
2022/10/02 09:12:24;;;;;;;3.50;2.50;;;;;;;17.80;82.54;101473.69;5023095;28;20484;-77
2022/10/02 09:14:59;;;;;;;3.20;2.83;;;;;;;17.96;85.03;101478.06;5061637;28;20039;-78
2022/10/02 09:17:39;;;;;;;4.35;2.80;;;;;;;17.91;84.20;101478.63;5055275;28;20028;-77
2022/10/02 09:20:11;;;;;;;3.95;2.45;;;;;;;17.58;85.48;101470.91;5064949;28;20021;-77
2022/10/02 09:22:46;;;;;;;4.75;3.45;;;;;;;18.37;84.18;101470.41;5057329;28;20037;-77
2022/10/02 09:25:30;;;;;;;4.45;4.15;;;;;;;20.37;81.33;101474.84;5058264;28;20036;-77
2022/10/02 09:28:40;;;;;;;4.47;4.18;;;;;;;23.28;70.81;101484.66;5067785;28;20028;-79
2022/10/02 09:31:28;;;;;;;3.53;1.95;;;;;;;25.68;65.48;101484.38;5049082;28;20043;-79
2022/10/02 09:34:21;;;;;;;2.67;1.63;;;;;;;27.42;59.90;101498.66;5062618;28;20071;-77
2022/10/02 09:37:05;;;;;;;4.38;1.00;;;;;;;28.56;57.85;101501.88;5065506;28;20364;-77
2022/10/02 09:39:50;;;;;;;2.25;0.80;;;;;;;29.18;52.35;101505.22;5067096;28;20098;-77
2022/10/02 09:42:53;;;;;;;3.17;1.08;;;;;;;29.93;50.33;101509.56;5065418;28;20016;-77
2022/10/02 09:45:27;;;;;;;4.68;1.42;;;;;;;30.60;50.59;101518.03;5069481;28;20095;-77
2022/10/02 09:48:11;;;;;;;3.28;1.10;;;;;;;31.32;51.15;101523.63;5063888;28;20024;-77
2022/10/02 09:50:48;;;;;;;2.78;1.45;;;;;;;32.14;49.85;101523.47;5055858;28;20464;-77
2022/10/02 09:53:48;;;;;;;2.63;1.00;;;;;;;32.98;47.11;101526.34;5063959;28;20163;-78
2022/10/02 09:56:38;;;;;;;3.92;1.30;;;;;;;32.98;47.11;101520.88;5060697;28;20052;-77
2022/10/02 09:59:35;;;;;;;6.15;1.58;;;;;;;32.77;45.66;101531.13;5068648;28;20058;-77
2022/10/02 10:02:29;;;;;;;4.60;2.05;;;;;;;30.95;48.42;101520.03;5068747;28;20483;-77
2022/10/02 10:05:07;;;;;;;4.25;2.33;;;;;;;30.70;49.05;101507.16;5061016;28;20496;-77
2022/10/02 10:07:47;;;;;;;2.10;1.88;;;;;;;30.66;49.82;101511.53;5065945;28;20025;-77
2022/10/02 10:10:25;;;;;;;3.33;2.20;;;;;;;30.32;49.73;101516.59;5060232;28;20040;-77
2022/10/02 10:12:56;;;;;;;3.58;2.20;;;;;;;29.12;50.43;101504.34;5068851;28;20016;-77
2022/10/02 10:15:48;;;;;;;2.47;2.03;;;;;;;30.63;48.71;101522.94;5057015;28;20036;-77
2022/10/02 10:18:48;;;;;;;4.05;1.83;;;;;;;30.79;47.31;101520.25;5056768;28;20131;-77
2022/10/02 10:21:50;;;;;;;6.75;2.25;;;;;;;28.05;49.23;101517.50;5056821;28;20024;-77
2022/10/02 10:24:34;;;;;;;3.10;1.95;;;;;;;26.46;52.65;101523.69;5056511;28;20025;-77
2022/10/02 10:27:12;;;;;;;4.43;2.40;;;;;;;26.47;55.32;101524.50;5062902;28;20025;-77
2022/10/02 10:29:56;;;;;;;4.00;3.05;;;;;;;24.50;59.99;101531.81;5068299;28;20071;-76
2022/10/02 10:32:46;;;;;;;5.25;3.33;;;;;;;23.33;63.24;101538.66;5065810;28;20016;-75
2022/10/02 10:35:24;;;;;;;5.88;3.25;;;;;;;22.25;64.27;101533.97;5059162;28;20021;-76
2022/10/02 10:41:11;;;;;;;5.78;4.82;;;;;;;20.50;68.93;101539.25;5060200;28;20031;-76
2022/10/02 10:44:21;;;;;;;7.43;6.88;;;;;;;22.34;67.25;101539.94;5060161;28;20025;-75
2022/10/02 10:47:23;;;;;;;4.28;2.90;;;;;;;24.26;60.46;101558.63;5051033;28;20036;-73
2022/10/02 10:50:03;;;;;;;3.10;2.55;;;;;;;26.32;54.97;101565.59;5055639;28;20464;-73
2022/10/02 10:52:45;;;;;;;3.90;2.63;;;;;;;27.79;54.30;101562.41;5058958;28;20370;-74
2022/10/02 10:55:32;;;;;;;4.15;1.98;;;;;;;29.02;49.74;101564.00;5054988;28;20472;-74
2022/10/02 10:58:14;;;;;;;4.32;1.98;;;;;;;29.56;49.16;101557.72;5063491;28;20103;-74
2022/10/02 11:01:07;;;;;;;7.13;2.13;;;;;;;30.42;47.82;101565.66;5054563;28;20095;-74
2022/10/02 11:04:12;;;;;;;3.08;1.67;;;;;;;29.31;46.52;101583.59;5057535;28;20447;-74
2022/10/02 11:07:09;;;;;;;5.72;2.13;;;;;;;26.15;51.50;101579.03;5042591;28;20088;-73
2022/10/02 11:09:44;;;;;;;2.88;2.17;;;;;;;25.28;52.29;101592.28;5037811;28;20052;-73
2022/10/02 11:12:27;;;;;;;5.50;2.40;;;;;;;24.49;55.24;101571.47;5037871;28;20053;-74
2022/10/02 11:15:32;;;;;;;2.80;2.33;;;;;;;25.31;54.66;101570.22;5029101;28;20770;-74
2022/10/02 11:18:27;;;;;;;5.55;2.20;;;;;;;25.80;50.90;101587.94;5040396;28;20162;-73
2022/10/02 11:21:04;;;;;;;4.70;2.20;;;;;;;25.51;52.83;101592.34;5033129;28;20528;-74
2022/10/02 11:23:35;;;;;;;4.70;2.30;;;;;;;25.90;52.77;101597.41;5034112;28;20021;-73
2022/10/02 11:26:39;;;;;;;7.63;1.63;;;;;;;26.05;51.43;101598.56;5021729;28;20496;-74
2022/10/02 11:29:17;;;;;;;9.48;2.03;;;;;;;24.42;52.98;101594.97;5038753;28;20151;-74
2022/10/02 11:32:13;;;;;;;3.08;2.15;;;;;;;23.39;54.37;101594.38;5041253;28;20032;-74
2022/10/02 11:35:12;;;;;;;4.47;2.22;;;;;;;23.23;57.31;101592.16;5034642;28;20064;-73
2022/10/02 11:38:02;;;;;;;3.13;2.20;;;;;;;25.14;55.01;101586.22;5038838;28;20436;-73
2022/10/02 11:40:46;;;;;;;4.80;1.55;;;;;;;26.75;50.64;101586.03;5033862;28;20479;-73
2022/10/02 11:43:27;;;;;;;2.38;1.70;;;;;;;27.48;50.22;101594.44;5035352;28;20510;-73
2022/10/02 11:46:14;;;;;;;3.30;1.60;;;;;;;27.71;49.58;101604.31;5049713;28;20044;-73
2022/10/02 11:49:02;;;;;;;3.63;1.83;;;;;;;27.25;50.90;101606.25;5063027;28;20033;-74
2022/10/02 11:51:45;;;;;;;3.28;1.60;;;;;;;27.06;50.10;101608.28;5065361;28;20031;-74
2022/10/02 11:54:32;;;;;;;4.07;1.85;;;;;;;26.59;50.49;101605.75;5056660;28;20094;-75
2022/10/02 11:57:22;;;;;;;3.20;1.73;;;;;;;26.58;50.75;101610.31;5055305;28;20059;-73
2022/10/02 12:00:13;;;;;;;3.80;1.20;;;;;;;27.14;49.75;101607.91;5053121;28;20032;-76
2022/10/02 12:02:51;;;;;;;3.33;1.90;;;;;;;28.66;48.61;101615.25;5055967;28;20402;-74
2022/10/02 12:05:21;;;;;;;2.58;1.70;;;;;;;27.62;47.55;101619.34;5053350;28;20048;-74
2022/10/02 12:07:54;;;;;;;4.63;1.70;;;;;;;26.58;49.21;101623.03;5061432;28;20498;-74
2022/10/02 12:10:47;;;;;;;4.65;2.10;;;;;;;26.72;49.94;101631.69;5058639;28;20111;-73
2022/10/02 12:13:41;;;;;;;2.72;1.08;;;;;;;27.65;47.81;101640.53;5057198;28;20364;-74
2022/10/02 12:16:42;;;;;;;3.55;1.83;;;;;;;28.15;46.72;101642.47;5056562;28;20036;-74